Terminal Aerodrome Forecast
Issued by NWS

Home | Current Version | Previous Version | Text Only | Print | Product List | Glossary On
Versions: 1 2 3 4 5 6 7 8 9 10 11 12 13 14 15 16 17
925
FTUS43 KAPX 302320
TAFPLN
TAF
KPLN 302320Z 0100/0124 07008KT P6SM BKN200
     FM010500 06006KT P6SM OVC080
     FM011400 06008KT P6SM VCSH OVC050
     FM011800 05009KT P6SM OVC080=

USA.gov is the U.S. government's official web portal to all federal, state and local government web resources and services.